Skiathos, Hellas

16:11:EET den 08. februar 2016 (GMT +0200)
Skopelos Greece | | Change Station
CLOSE
Current Station
Personlig værstasjon
Location: Ελλάδα,
Høyde over havet: 259 ft
Nearby Weather Stations

H.o.h 259 ft 39.13 °N, 23.72 °E | Updated 10 seconds ago

Mostly Cloudy
For det meste skyet
51.8 °F
Feels Like 51.8 °F
N
0.3
Vind Variabel Vind from VNV
Gusts 3.8 mph

I dag
High -- | Low -- °F
--% Chance of Precip.
I går
High -- | Low -- °F
Precip. -- tommer
Lufttrykk 30.24 tommer
Sikt 6.2 eng. mil
Skyet Few 3500 ft
For det meste skyet 18000 ft
Duggpunkt 40 °F
Fuktighet 64%
Regn 0.00 tommer
Snødybde Not available.
7:26 AM 5:54 PM
Minkende sigd, 0% visible
METAR LGBL 081350Z 11003KT 9999 FEW035 BKN180 12/03 Q1024 RMK FEW080 BLU
Lufttrykk 30.24 tommer
Sikt 6.2 eng. mil
Skyet Few 3500 ft
For det meste skyet 18000 ft
Duggpunkt 40 °F
Fuktighet 64%
Regn 0.00 tommer
Snødybde Not available.
7:26 AM 5:54 PM
Minkende sigd, 0% visible
METAR LGBL 081350Z 11003KT 9999 FEW035 BKN180 12/03 Q1024 RMK FEW080 BLU

10-Day Weather Forecast

Almanac

Astronomi

Feb. 08, 2016 Oppgang Nedgang
Virkelig tid
Tussmørke
Nautisk skumring
Astronomisk skumring
Månen
Lengde av synlig lys
Dagens lengde
Tomorrow will be .
, % of the Moon is Illuminated

Dagens maks og min

Country Highs Country Lows

Community

WunderPhotos

Upload Photos

1,891,437 photos uploaded!

WunderBlog® & News

Nearby

Luftkvalitet

  Luftkvalitet AQ Indeks Forurensing
Not available.

Snødybde

Stasjon Depth Høyde over havet

Earthquake Activity

By Distance Mag. Time & Date
Minimum magnitude displayed is 2.5.

Coastal Water Temperatures

Sted Temperatur

Stations

Nearby Weather Stations

Stasjonens lokasjon Temp. Nedkjølingseffekt Duggpunkt Fuktighet Vind Precip. H.o.h Oppdatert Type